sensor_id;sensor_type;location;lat;lon;timestamp;P1;durP1;ratioP1;P2;durP2;ratioP2
35578;SDS011;21687;48.900;9.188;2023-05-13T00:02:12;3.60;;;3.30;;
35578;SDS011;21687;48.900;9.188;2023-05-13T00:04:39;3.87;;;3.57;;
35578;SDS011;21687;48.900;9.188;2023-05-13T00:07:06;4.10;;;3.70;;
35578;SDS011;21687;48.900;9.188;2023-05-13T00:09:32;4.27;;;3.83;;
35578;SDS011;21687;48.900;9.188;2023-05-13T00:11:59;4.23;;;3.83;;
35578;SDS011;21687;48.900;9.188;2023-05-13T00:14:25;4.00;;;3.70;;
35578;SDS011;21687;48.900;9.188;2023-05-13T00:16:51;4.07;;;3.67;;
35578;SDS011;21687;48.900;9.188;2023-05-13T00:19:18;4.20;;;3.90;;
35578;SDS011;21687;48.900;9.188;2023-05-13T00:21:44;5.80;;;4.20;;
35578;SDS011;21687;48.900;9.188;2023-05-13T00:24:11;4.43;;;4.03;;
35578;SDS011;21687;48.900;9.188;2023-05-13T00:26:37;4.93;;;4.10;;
35578;SDS011;21687;48.900;9.188;2023-05-13T00:29:03;5.77;;;4.53;;
35578;SDS011;21687;48.900;9.188;2023-05-13T00:31:29;6.97;;;4.83;;
35578;SDS011;21687;48.900;9.188;2023-05-13T00:33:55;4.97;;;4.07;;
35578;SDS011;21687;48.900;9.188;2023-05-13T00:36:22;4.57;;;4.07;;
35578;SDS011;21687;48.900;9.188;2023-05-13T00:38:48;4.93;;;4.43;;
35578;SDS011;21687;48.900;9.188;2023-05-13T00:41:14;5.03;;;4.60;;
35578;SDS011;21687;48.900;9.188;2023-05-13T00:43:41;8.10;;;4.63;;
35578;SDS011;21687;48.900;9.188;2023-05-13T00:46:07;5.47;;;4.00;;
35578;SDS011;21687;48.900;9.188;2023-05-13T00:48:34;6.37;;;4.20;;
35578;SDS011;21687;48.900;9.188;2023-05-13T00:51:00;4.50;;;4.10;;
35578;SDS011;21687;48.900;9.188;2023-05-13T00:53:26;4.10;;;3.80;;
35578;SDS011;21687;48.900;9.188;2023-05-13T00:55:52;4.70;;;4.10;;
35578;SDS011;21687;48.900;9.188;2023-05-13T00:58:18;4.87;;;4.43;;
35578;SDS011;21687;48.900;9.188;2023-05-13T01:00:55;5.23;;;4.00;;
35578;SDS011;21687;48.900;9.188;2023-05-13T01:06:20;6.97;;;4.40;;
35578;SDS011;21687;48.900;9.188;2023-05-13T01:09:22;4.70;;;4.30;;
35578;SDS011;21687;48.900;9.188;2023-05-13T01:11:50;4.90;;;4.40;;
35578;SDS011;21687;48.900;9.188;2023-05-13T01:14:24;4.10;;;3.80;;
35578;SDS011;21687;48.900;9.188;2023-05-13T01:17:05;5.03;;;4.50;;
35578;SDS011;21687;48.900;9.188;2023-05-13T01:19:40;4.63;;;4.17;;
35578;SDS011;21687;48.900;9.188;2023-05-13T01:22:16;4.40;;;4.00;;
35578;SDS011;21687;48.900;9.188;2023-05-13T01:24:42;6.70;;;4.47;;
35578;SDS011;21687;48.900;9.188;2023-05-13T01:27:09;4.90;;;4.40;;
35578;SDS011;21687;48.900;9.188;2023-05-13T01:29:36;5.43;;;4.53;;
35578;SDS011;21687;48.900;9.188;2023-05-13T01:32:02;5.27;;;4.47;;
35578;SDS011;21687;48.900;9.188;2023-05-13T01:34:29;5.57;;;4.97;;
35578;SDS011;21687;48.900;9.188;2023-05-13T01:36:57;5.10;;;4.60;;
35578;SDS011;21687;48.900;9.188;2023-05-13T01:39:24;5.53;;;5.03;;
35578;SDS011;21687;48.900;9.188;2023-05-13T01:41:50;5.50;;;5.00;;
35578;SDS011;21687;48.900;9.188;2023-05-13T01:44:17;4.83;;;4.30;;
35578;SDS011;21687;48.900;9.188;2023-05-13T01:46:43;4.63;;;4.17;;
35578;SDS011;21687;48.900;9.188;2023-05-13T01:49:10;5.10;;;4.30;;
35578;SDS011;21687;48.900;9.188;2023-05-13T01:51:36;5.00;;;4.57;;
35578;SDS011;21687;48.900;9.188;2023-05-13T01:54:04;5.13;;;4.60;;
35578;SDS011;21687;48.900;9.188;2023-05-13T01:56:30;4.50;;;4.10;;
35578;SDS011;21687;48.900;9.188;2023-05-13T01:58:56;4.17;;;3.77;;
35578;SDS011;21687;48.900;9.188;2023-05-13T02:01:22;4.50;;;4.10;;
35578;SDS011;21687;48.900;9.188;2023-05-13T02:03:49;4.10;;;3.70;;
35578;SDS011;21687;48.900;9.188;2023-05-13T02:06:15;5.20;;;4.20;;
35578;SDS011;21687;48.900;9.188;2023-05-13T02:08:41;4.80;;;4.20;;
35578;SDS011;21687;48.900;9.188;2023-05-13T02:11:07;5.27;;;4.50;;
35578;SDS011;21687;48.900;9.188;2023-05-13T02:13:34;5.00;;;4.60;;
35578;SDS011;21687;48.900;9.188;2023-05-13T02:16:00;4.70;;;4.30;;
35578;SDS011;21687;48.900;9.188;2023-05-13T02:18:27;5.20;;;4.70;;
35578;SDS011;21687;48.900;9.188;2023-05-13T02:20:53;5.27;;;4.77;;
35578;SDS011;21687;48.900;9.188;2023-05-13T02:23:20;6.40;;;4.77;;
35578;SDS011;21687;48.900;9.188;2023-05-13T02:25:46;5.73;;;4.90;;
35578;SDS011;21687;48.900;9.188;2023-05-13T02:28:12;5.17;;;4.73;;
35578;SDS011;21687;48.900;9.188;2023-05-13T02:30:39;5.43;;;4.93;;
35578;SDS011;21687;48.900;9.188;2023-05-13T02:33:05;5.33;;;4.30;;
35578;SDS011;21687;48.900;9.188;2023-05-13T02:35:32;5.13;;;4.63;;
35578;SDS011;21687;48.900;9.188;2023-05-13T02:37:59;6.23;;;4.60;;
35578;SDS011;21687;48.900;9.188;2023-05-13T02:40:27;4.80;;;4.40;;
35578;SDS011;21687;48.900;9.188;2023-05-13T02:42:54;4.63;;;4.23;;
35578;SDS011;21687;48.900;9.188;2023-05-13T02:45:20;5.80;;;4.53;;
35578;SDS011;21687;48.900;9.188;2023-05-13T02:47:46;4.77;;;4.27;;
35578;SDS011;21687;48.900;9.188;2023-05-13T02:50:12;6.20;;;4.20;;
35578;SDS011;21687;48.900;9.188;2023-05-13T02:52:38;5.60;;;5.03;;
35578;SDS011;21687;48.900;9.188;2023-05-13T02:55:05;6.17;;;5.07;;
35578;SDS011;21687;48.900;9.188;2023-05-13T02:57:32;6.90;;;5.33;;
35578;SDS011;21687;48.900;9.188;2023-05-13T02:59:59;5.77;;;5.17;;
35578;SDS011;21687;48.900;9.188;2023-05-13T03:02:26;6.43;;;5.63;;
35578;SDS011;21687;48.900;9.188;2023-05-13T03:04:52;7.20;;;5.87;;
35578;SDS011;21687;48.900;9.188;2023-05-13T03:07:19;6.20;;;5.60;;
35578;SDS011;21687;48.900;9.188;2023-05-13T03:09:46;6.20;;;5.70;;
35578;SDS011;21687;48.900;9.188;2023-05-13T03:12:12;7.80;;;6.00;;
35578;SDS011;21687;48.900;9.188;2023-05-13T03:14:39;7.47;;;5.53;;
35578;SDS011;21687;48.900;9.188;2023-05-13T03:17:07;6.53;;;5.93;;
35578;SDS011;21687;48.900;9.188;2023-05-13T03:19:34;7.13;;;6.37;;
35578;SDS011;21687;48.900;9.188;2023-05-13T03:22:01;7.77;;;5.90;;
35578;SDS011;21687;48.900;9.188;2023-05-13T03:24:28;6.60;;;6.00;;
35578;SDS011;21687;48.900;9.188;2023-05-13T03:26:55;6.73;;;5.87;;
35578;SDS011;21687;48.900;9.188;2023-05-13T03:29:22;7.70;;;6.93;;
35578;SDS011;21687;48.900;9.188;2023-05-13T03:31:48;6.33;;;5.73;;
35578;SDS011;21687;48.900;9.188;2023-05-13T03:34:15;7.63;;;5.80;;
35578;SDS011;21687;48.900;9.188;2023-05-13T03:36:41;6.03;;;5.43;;
35578;SDS011;21687;48.900;9.188;2023-05-13T03:39:07;6.20;;;5.57;;
35578;SDS011;21687;48.900;9.188;2023-05-13T03:41:34;6.63;;;5.80;;
35578;SDS011;21687;48.900;9.188;2023-05-13T03:44:01;8.13;;;6.30;;
35578;SDS011;21687;48.900;9.188;2023-05-13T03:46:27;7.77;;;6.00;;
35578;SDS011;21687;48.900;9.188;2023-05-13T03:48:54;6.87;;;6.07;;
35578;SDS011;21687;48.900;9.188;2023-05-13T03:51:21;6.97;;;6.07;;
35578;SDS011;21687;48.900;9.188;2023-05-13T03:53:47;9.57;;;7.33;;
35578;SDS011;21687;48.900;9.188;2023-05-13T03:56:13;7.60;;;6.17;;
35578;SDS011;21687;48.900;9.188;2023-05-13T03:58:40;6.97;;;5.93;;
35578;SDS011;21687;48.900;9.188;2023-05-13T04:01:06;7.87;;;6.53;;
35578;SDS011;21687;48.900;9.188;2023-05-13T04:03:33;6.37;;;5.77;;
35578;SDS011;21687;48.900;9.188;2023-05-13T04:05:59;6.20;;;5.50;;
35578;SDS011;21687;48.900;9.188;2023-05-13T04:08:25;6.70;;;6.10;;
35578;SDS011;21687;48.900;9.188;2023-05-13T04:10:52;7.20;;;5.80;;
35578;SDS011;21687;48.900;9.188;2023-05-13T04:13:20;6.83;;;5.80;;
35578;SDS011;21687;48.900;9.188;2023-05-13T04:15:46;5.87;;;5.27;;
35578;SDS011;21687;48.900;9.188;2023-05-13T04:18:13;6.17;;;5.57;;
35578;SDS011;21687;48.900;9.188;2023-05-13T04:20:39;6.97;;;5.37;;
35578;SDS011;21687;48.900;9.188;2023-05-13T04:23:05;6.00;;;5.50;;
35578;SDS011;21687;48.900;9.188;2023-05-13T04:25:33;7.23;;;6.30;;
35578;SDS011;21687;48.900;9.188;2023-05-13T04:28:01;5.87;;;5.27;;
35578;SDS011;21687;48.900;9.188;2023-05-13T04:30:27;7.00;;;5.90;;
35578;SDS011;21687;48.900;9.188;2023-05-13T04:32:54;6.40;;;5.80;;
35578;SDS011;21687;48.900;9.188;2023-05-13T04:35:20;6.33;;;5.73;;
35578;SDS011;21687;48.900;9.188;2023-05-13T04:37:46;5.47;;;4.97;;
35578;SDS011;21687;48.900;9.188;2023-05-13T04:40:13;4.90;;;4.50;;
35578;SDS011;21687;48.900;9.188;2023-05-13T04:42:40;5.10;;;4.70;;
35578;SDS011;21687;48.900;9.188;2023-05-13T04:45:06;5.30;;;4.80;;
35578;SDS011;21687;48.900;9.188;2023-05-13T04:47:33;5.50;;;4.53;;
35578;SDS011;21687;48.900;9.188;2023-05-13T04:49:59;5.77;;;4.53;;
35578;SDS011;21687;48.900;9.188;2023-05-13T04:52:26;5.57;;;4.40;;
35578;SDS011;21687;48.900;9.188;2023-05-13T04:54:52;4.67;;;4.27;;
35578;SDS011;21687;48.900;9.188;2023-05-13T04:57:18;5.27;;;4.07;;
35578;SDS011;21687;48.900;9.188;2023-05-13T04:59:44;4.00;;;3.70;;
35578;SDS011;21687;48.900;9.188;2023-05-13T05:02:11;4.47;;;4.13;;
35578;SDS011;21687;48.900;9.188;2023-05-13T05:04:37;4.83;;;4.20;;
35578;SDS011;21687;48.900;9.188;2023-05-13T05:07:06;4.50;;;4.10;;
35578;SDS011;21687;48.900;9.188;2023-05-13T05:09:32;4.90;;;4.00;;
35578;SDS011;21687;48.900;9.188;2023-05-13T05:11:58;4.90;;;4.30;;
35578;SDS011;21687;48.900;9.188;2023-05-13T05:14:24;4.17;;;3.80;;
35578;SDS011;21687;48.900;9.188;2023-05-13T05:16:50;4.30;;;3.90;;
35578;SDS011;21687;48.900;9.188;2023-05-13T05:19:17;3.90;;;3.60;;
35578;SDS011;21687;48.900;9.188;2023-05-13T05:21:47;3.63;;;3.33;;
35578;SDS011;21687;48.900;9.188;2023-05-13T05:24:17;5.93;;;4.57;;
35578;SDS011;21687;48.900;9.188;2023-05-13T05:26:43;3.90;;;3.60;;
35578;SDS011;21687;48.900;9.188;2023-05-13T05:29:09;5.97;;;3.63;;
35578;SDS011;21687;48.900;9.188;2023-05-13T05:31:36;4.03;;;3.67;;
35578;SDS011;21687;48.900;9.188;2023-05-13T05:34:02;4.67;;;3.40;;
35578;SDS011;21687;48.900;9.188;2023-05-13T05:36:29;3.87;;;3.57;;
35578;SDS011;21687;48.900;9.188;2023-05-13T05:38:55;4.20;;;3.80;;
35578;SDS011;21687;48.900;9.188;2023-05-13T05:41:21;6.53;;;4.00;;
35578;SDS011;21687;48.900;9.188;2023-05-13T05:43:47;4.07;;;3.77;;
35578;SDS011;21687;48.900;9.188;2023-05-13T05:46:14;3.80;;;3.50;;
35578;SDS011;21687;48.900;9.188;2023-05-13T05:48:42;3.93;;;3.53;;
35578;SDS011;21687;48.900;9.188;2023-05-13T05:51:08;4.10;;;3.70;;
35578;SDS011;21687;48.900;9.188;2023-05-13T05:53:35;4.80;;;4.07;;
35578;SDS011;21687;48.900;9.188;2023-05-13T05:56:05;3.97;;;3.57;;
35578;SDS011;21687;48.900;9.188;2023-05-13T05:58:31;6.90;;;3.57;;
35578;SDS011;21687;48.900;9.188;2023-05-13T06:00:58;4.13;;;3.70;;
35578;SDS011;21687;48.900;9.188;2023-05-13T06:03:25;3.60;;;3.30;;
35578;SDS011;21687;48.900;9.188;2023-05-13T06:05:52;3.93;;;3.10;;
35578;SDS011;21687;48.900;9.188;2023-05-13T06:08:19;4.50;;;4.10;;
35578;SDS011;21687;48.900;9.188;2023-05-13T06:10:45;3.43;;;3.13;;
35578;SDS011;21687;48.900;9.188;2023-05-13T06:13:11;4.10;;;3.70;;
35578;SDS011;21687;48.900;9.188;2023-05-13T06:15:38;4.53;;;3.67;;
35578;SDS011;21687;48.900;9.188;2023-05-13T06:18:04;3.87;;;3.50;;
35578;SDS011;21687;48.900;9.188;2023-05-13T06:20:31;4.60;;;4.20;;
35578;SDS011;21687;48.900;9.188;2023-05-13T06:23:00;4.83;;;3.80;;
35578;SDS011;21687;48.900;9.188;2023-05-13T06:25:26;4.43;;;4.03;;
35578;SDS011;21687;48.900;9.188;2023-05-13T06:27:53;4.10;;;3.80;;
35578;SDS011;21687;48.900;9.188;2023-05-13T06:30:19;4.87;;;3.73;;
35578;SDS011;21687;48.900;9.188;2023-05-13T06:32:47;4.07;;;3.77;;
35578;SDS011;21687;48.900;9.188;2023-05-13T06:35:13;4.07;;;3.50;;
35578;SDS011;21687;48.900;9.188;2023-05-13T06:37:40;4.10;;;3.80;;
35578;SDS011;21687;48.900;9.188;2023-05-13T06:40:06;4.33;;;3.90;;
35578;SDS011;21687;48.900;9.188;2023-05-13T06:42:33;4.47;;;4.07;;
35578;SDS011;21687;48.900;9.188;2023-05-13T06:45:05;6.07;;;3.93;;
35578;SDS011;21687;48.900;9.188;2023-05-13T06:47:32;3.67;;;3.37;;
35578;SDS011;21687;48.900;9.188;2023-05-13T06:49:59;4.63;;;3.77;;
35578;SDS011;21687;48.900;9.188;2023-05-13T06:52:26;4.90;;;3.60;;
35578;SDS011;21687;48.900;9.188;2023-05-13T06:54:53;4.20;;;3.47;;
35578;SDS011;21687;48.900;9.188;2023-05-13T06:57:19;5.07;;;3.70;;
35578;SDS011;21687;48.900;9.188;2023-05-13T06:59:46;4.73;;;3.90;;
35578;SDS011;21687;48.900;9.188;2023-05-13T07:02:12;4.50;;;4.10;;
35578;SDS011;21687;48.900;9.188;2023-05-13T07:04:38;7.00;;;3.93;;
35578;SDS011;21687;48.900;9.188;2023-05-13T07:07:05;6.80;;;3.97;;
35578;SDS011;21687;48.900;9.188;2023-05-13T07:09:31;5.57;;;4.47;;
35578;SDS011;21687;48.900;9.188;2023-05-13T07:11:58;6.60;;;4.10;;
35578;SDS011;21687;48.900;9.188;2023-05-13T07:14:24;4.77;;;3.90;;
35578;SDS011;21687;48.900;9.188;2023-05-13T07:16:50;4.17;;;3.77;;
35578;SDS011;21687;48.900;9.188;2023-05-13T07:19:17;4.37;;;3.70;;
35578;SDS011;21687;48.900;9.188;2023-05-13T07:21:43;4.00;;;3.63;;
35578;SDS011;21687;48.900;9.188;2023-05-13T07:24:10;4.00;;;3.70;;
35578;SDS011;21687;48.900;9.188;2023-05-13T07:26:36;4.03;;;3.67;;
35578;SDS011;21687;48.900;9.188;2023-05-13T07:29:03;3.97;;;3.60;;
35578;SDS011;21687;48.900;9.188;2023-05-13T07:31:29;5.73;;;3.90;;
35578;SDS011;21687;48.900;9.188;2023-05-13T07:33:55;3.70;;;3.40;;
35578;SDS011;21687;48.900;9.188;2023-05-13T07:36:21;4.97;;;3.60;;
35578;SDS011;21687;48.900;9.188;2023-05-13T07:38:48;4.07;;;3.70;;
35578;SDS011;21687;48.900;9.188;2023-05-13T07:41:15;3.83;;;3.27;;
35578;SDS011;21687;48.900;9.188;2023-05-13T07:43:42;3.70;;;3.40;;
35578;SDS011;21687;48.900;9.188;2023-05-13T07:46:08;3.67;;;3.37;;
35578;SDS011;21687;48.900;9.188;2023-05-13T07:48:35;5.57;;;3.93;;
35578;SDS011;21687;48.900;9.188;2023-05-13T07:51:01;3.80;;;3.50;;
35578;SDS011;21687;48.900;9.188;2023-05-13T07:53:29;3.87;;;3.37;;
35578;SDS011;21687;48.900;9.188;2023-05-13T07:55:56;6.50;;;3.67;;
35578;SDS011;21687;48.900;9.188;2023-05-13T07:58:22;3.70;;;3.30;;
35578;SDS011;21687;48.900;9.188;2023-05-13T08:00:48;3.97;;;3.60;;
35578;SDS011;21687;48.900;9.188;2023-05-13T08:03:15;3.77;;;3.47;;
35578;SDS011;21687;48.900;9.188;2023-05-13T08:05:41;5.03;;;3.47;;
35578;SDS011;21687;48.900;9.188;2023-05-13T08:08:08;4.37;;;3.87;;
35578;SDS011;21687;48.900;9.188;2023-05-13T08:10:41;5.63;;;3.67;;
35578;SDS011;21687;48.900;9.188;2023-05-13T08:13:07;3.60;;;3.30;;
35578;SDS011;21687;48.900;9.188;2023-05-13T08:15:33;3.83;;;3.43;;
35578;SDS011;21687;48.900;9.188;2023-05-13T08:18:01;4.33;;;3.93;;
35578;SDS011;21687;48.900;9.188;2023-05-13T08:20:28;4.30;;;3.90;;
35578;SDS011;21687;48.900;9.188;2023-05-13T08:22:56;3.83;;;3.30;;
35578;SDS011;21687;48.900;9.188;2023-05-13T08:25:23;3.90;;;3.60;;
35578;SDS011;21687;48.900;9.188;2023-05-13T08:27:49;3.70;;;3.33;;
35578;SDS011;21687;48.900;9.188;2023-05-13T08:30:16;5.93;;;3.20;;
35578;SDS011;21687;48.900;9.188;2023-05-13T08:32:42;3.63;;;3.33;;
35578;SDS011;21687;48.900;9.188;2023-05-13T08:35:08;4.00;;;3.70;;
35578;SDS011;21687;48.900;9.188;2023-05-13T08:37:35;4.83;;;3.30;;
35578;SDS011;21687;48.900;9.188;2023-05-13T08:40:02;4.53;;;3.13;;
35578;SDS011;21687;48.900;9.188;2023-05-13T08:42:30;3.87;;;3.57;;
35578;SDS011;21687;48.900;9.188;2023-05-13T08:44:58;6.80;;;3.13;;
35578;SDS011;21687;48.900;9.188;2023-05-13T08:50:01;3.93;;;3.60;;
35578;SDS011;21687;48.900;9.188;2023-05-13T08:52:28;3.73;;;3.43;;
35578;SDS011;21687;48.900;9.188;2023-05-13T08:54:55;4.30;;;3.90;;
35578;SDS011;21687;48.900;9.188;2023-05-13T08:57:27;3.60;;;3.30;;
35578;SDS011;21687;48.900;9.188;2023-05-13T08:59:54;4.23;;;3.23;;
35578;SDS011;21687;48.900;9.188;2023-05-13T09:02:21;3.70;;;3.40;;
35578;SDS011;21687;48.900;9.188;2023-05-13T09:04:49;3.93;;;3.10;;
35578;SDS011;21687;48.900;9.188;2023-05-13T09:07:17;4.80;;;3.50;;
35578;SDS011;21687;48.900;9.188;2023-05-13T09:09:44;6.33;;;3.50;;
35578;SDS011;21687;48.900;9.188;2023-05-13T09:12:10;3.87;;;3.47;;
35578;SDS011;21687;48.900;9.188;2023-05-13T09:14:37;3.60;;;3.30;;
35578;SDS011;21687;48.900;9.188;2023-05-13T09:17:04;6.47;;;3.50;;
35578;SDS011;21687;48.900;9.188;2023-05-13T09:19:30;3.90;;;3.13;;
35578;SDS011;21687;48.900;9.188;2023-05-13T09:21:57;5.17;;;3.23;;
35578;SDS011;21687;48.900;9.188;2023-05-13T09:24:23;5.83;;;4.00;;
35578;SDS011;21687;48.900;9.188;2023-05-13T09:26:50;3.83;;;3.40;;
35578;SDS011;21687;48.900;9.188;2023-05-13T09:29:24;3.73;;;3.43;;
35578;SDS011;21687;48.900;9.188;2023-05-13T09:31:58;5.63;;;3.40;;
35578;SDS011;21687;48.900;9.188;2023-05-13T09:37:00;3.60;;;3.20;;
35578;SDS011;21687;48.900;9.188;2023-05-13T09:39:27;3.50;;;3.20;;
35578;SDS011;21687;48.900;9.188;2023-05-13T09:41:56;3.07;;;2.80;;
35578;SDS011;21687;48.900;9.188;2023-05-13T09:44:22;5.33;;;3.30;;
35578;SDS011;21687;48.900;9.188;2023-05-13T09:46:50;3.57;;;3.27;;
35578;SDS011;21687;48.900;9.188;2023-05-13T09:49:17;5.23;;;3.20;;
35578;SDS011;21687;48.900;9.188;2023-05-13T09:51:48;5.47;;;3.27;;
35578;SDS011;21687;48.900;9.188;2023-05-13T09:54:15;3.43;;;3.13;;
35578;SDS011;21687;48.900;9.188;2023-05-13T09:56:44;4.10;;;3.50;;
35578;SDS011;21687;48.900;9.188;2023-05-13T09:59:10;3.40;;;3.10;;
35578;SDS011;21687;48.900;9.188;2023-05-13T10:01:37;3.87;;;3.50;;
35578;SDS011;21687;48.900;9.188;2023-05-13T10:04:04;4.90;;;3.60;;
35578;SDS011;21687;48.900;9.188;2023-05-13T10:06:31;5.00;;;3.23;;
35578;SDS011;21687;48.900;9.188;2023-05-13T10:08:59;3.27;;;2.97;;
35578;SDS011;21687;48.900;9.188;2023-05-13T10:11:31;3.50;;;3.20;;
35578;SDS011;21687;48.900;9.188;2023-05-13T10:13:59;4.00;;;3.07;;
35578;SDS011;21687;48.900;9.188;2023-05-13T10:16:30;3.10;;;2.87;;
35578;SDS011;21687;48.900;9.188;2023-05-13T10:18:57;3.30;;;3.00;;
35578;SDS011;21687;48.900;9.188;2023-05-13T10:21:25;3.43;;;3.10;;
35578;SDS011;21687;48.900;9.188;2023-05-13T10:23:52;5.00;;;3.20;;
35578;SDS011;21687;48.900;9.188;2023-05-13T10:26:21;4.40;;;3.50;;
35578;SDS011;21687;48.900;9.188;2023-05-13T10:28:48;3.97;;;3.60;;
35578;SDS011;21687;48.900;9.188;2023-05-13T10:31:15;3.70;;;3.30;;
35578;SDS011;21687;48.900;9.188;2023-05-13T10:33:42;3.40;;;3.10;;
35578;SDS011;21687;48.900;9.188;2023-05-13T10:44:40;3.73;;;3.43;;
35578;SDS011;21687;48.900;9.188;2023-05-13T10:47:10;3.70;;;3.33;;
35578;SDS011;21687;48.900;9.188;2023-05-13T10:49:37;4.23;;;3.53;;
35578;SDS011;21687;48.900;9.188;2023-05-13T10:52:08;6.33;;;4.13;;
35578;SDS011;21687;48.900;9.188;2023-05-13T10:54:39;3.50;;;3.10;;
35578;SDS011;21687;48.900;9.188;2023-05-13T10:57:06;3.93;;;3.53;;
35578;SDS011;21687;48.900;9.188;2023-05-13T10:59:36;7.80;;;3.23;;
35578;SDS011;21687;48.900;9.188;2023-05-13T11:02:22;3.43;;;3.13;;
35578;SDS011;21687;48.900;9.188;2023-05-13T11:04:59;3.93;;;2.90;;
35578;SDS011;21687;48.900;9.188;2023-05-13T11:07:28;3.60;;;3.30;;
35578;SDS011;21687;48.900;9.188;2023-05-13T11:09:58;3.40;;;3.10;;
35578;SDS011;21687;48.900;9.188;2023-05-13T11:12:27;3.20;;;2.90;;
35578;SDS011;21687;48.900;9.188;2023-05-13T11:14:54;3.37;;;2.93;;
35578;SDS011;21687;48.900;9.188;2023-05-13T11:17:24;3.23;;;2.40;;
35578;SDS011;21687;48.900;9.188;2023-05-13T11:19:50;3.07;;;2.83;;
35578;SDS011;21687;48.900;9.188;2023-05-13T11:22:21;3.20;;;3.00;;
35578;SDS011;21687;48.900;9.188;2023-05-13T11:25:07;2.90;;;2.70;;
35578;SDS011;21687;48.900;9.188;2023-05-13T11:27:38;4.33;;;2.63;;
35578;SDS011;21687;48.900;9.188;2023-05-13T11:30:07;3.73;;;2.50;;
35578;SDS011;21687;48.900;9.188;2023-05-13T11:32:58;2.70;;;2.50;;
35578;SDS011;21687;48.900;9.188;2023-05-13T11:35:30;3.17;;;2.70;;
35578;SDS011;21687;48.900;9.188;2023-05-13T11:37:59;3.70;;;3.03;;
35578;SDS011;21687;48.900;9.188;2023-05-13T11:40:27;2.93;;;2.67;;
35578;SDS011;21687;48.900;9.188;2023-05-13T11:48:17;4.40;;;2.70;;
35578;SDS011;21687;48.900;9.188;2023-05-13T11:51:48;3.27;;;2.60;;
35578;SDS011;21687;48.900;9.188;2023-05-13T11:55:00;2.73;;;2.53;;
35578;SDS011;21687;48.900;9.188;2023-05-13T11:58:30;3.23;;;2.80;;
35578;SDS011;21687;48.900;9.188;2023-05-13T12:01:32;3.67;;;2.73;;
35578;SDS011;21687;48.900;9.188;2023-05-13T12:04:07;2.93;;;2.60;;
35578;SDS011;21687;48.900;9.188;2023-05-13T12:06:45;3.33;;;2.60;;
35578;SDS011;21687;48.900;9.188;2023-05-13T12:09:34;3.07;;;2.80;;
35578;SDS011;21687;48.900;9.188;2023-05-13T12:12:03;3.00;;;2.70;;
35578;SDS011;21687;48.900;9.188;2023-05-13T12:14:59;2.80;;;2.60;;
35578;SDS011;21687;48.900;9.188;2023-05-13T12:17:39;2.80;;;2.60;;
35578;SDS011;21687;48.900;9.188;2023-05-13T12:23:51;4.20;;;3.20;;
35578;SDS011;21687;48.900;9.188;2023-05-13T12:35:23;3.10;;;2.70;;
35578;SDS011;21687;48.900;9.188;2023-05-13T12:38:04;2.83;;;2.53;;
35578;SDS011;21687;48.900;9.188;2023-05-13T12:41:49;2.80;;;2.60;;
35578;SDS011;21687;48.900;9.188;2023-05-13T12:44:31;2.60;;;2.40;;
35578;SDS011;21687;48.900;9.188;2023-05-13T12:47:19;4.30;;;2.80;;
35578;SDS011;21687;48.900;9.188;2023-05-13T12:49:55;2.90;;;2.70;;
35578;SDS011;21687;48.900;9.188;2023-05-13T12:53:15;3.13;;;2.83;;
35578;SDS011;21687;48.900;9.188;2023-05-13T12:56:02;3.20;;;2.67;;
35578;SDS011;21687;48.900;9.188;2023-05-13T12:58:35;6.33;;;2.50;;
35578;SDS011;21687;48.900;9.188;2023-05-13T13:07:53;3.50;;;2.47;;
35578;SDS011;21687;48.900;9.188;2023-05-13T13:10:34;2.93;;;2.70;;
35578;SDS011;21687;48.900;9.188;2023-05-13T13:17:48;3.73;;;2.90;;
35578;SDS011;21687;48.900;9.188;2023-05-13T13:27:36;3.07;;;2.87;;
35578;SDS011;21687;48.900;9.188;2023-05-13T13:33:52;4.07;;;2.90;;
35578;SDS011;21687;48.900;9.188;2023-05-13T13:36:58;3.43;;;3.17;;
35578;SDS011;21687;48.900;9.188;2023-05-13T13:39:31;4.93;;;3.43;;
35578;SDS011;21687;48.900;9.188;2023-05-13T13:42:09;3.83;;;3.53;;
35578;SDS011;21687;48.900;9.188;2023-05-13T13:44:51;4.60;;;3.50;;
35578;SDS011;21687;48.900;9.188;2023-05-13T13:47:17;3.30;;;3.00;;
35578;SDS011;21687;48.900;9.188;2023-05-13T13:50:18;3.33;;;3.03;;
35578;SDS011;21687;48.900;9.188;2023-05-13T13:53:17;3.47;;;3.17;;
35578;SDS011;21687;48.900;9.188;2023-05-13T13:59:14;4.40;;;2.83;;
35578;SDS011;21687;48.900;9.188;2023-05-13T14:01:46;5.33;;;3.93;;
35578;SDS011;21687;48.900;9.188;2023-05-13T14:04:18;3.37;;;3.07;;
35578;SDS011;21687;48.900;9.188;2023-05-13T14:07:23;3.07;;;2.87;;
35578;SDS011;21687;48.900;9.188;2023-05-13T14:10:08;3.50;;;3.20;;
35578;SDS011;21687;48.900;9.188;2023-05-13T14:12:44;4.63;;;3.33;;
35578;SDS011;21687;48.900;9.188;2023-05-13T14:15:23;4.33;;;3.13;;
35578;SDS011;21687;48.900;9.188;2023-05-13T14:17:53;4.03;;;3.20;;
35578;SDS011;21687;48.900;9.188;2023-05-13T14:25:01;3.07;;;2.87;;
35578;SDS011;21687;48.900;9.188;2023-05-13T14:28:09;3.87;;;3.47;;
35578;SDS011;21687;48.900;9.188;2023-05-13T14:30:40;3.67;;;2.80;;
35578;SDS011;21687;48.900;9.188;2023-05-13T14:33:19;3.70;;;3.40;;
35578;SDS011;21687;48.900;9.188;2023-05-13T14:35:49;3.77;;;3.37;;
35578;SDS011;21687;48.900;9.188;2023-05-13T14:41:45;4.10;;;3.67;;
35578;SDS011;21687;48.900;9.188;2023-05-13T14:44:22;3.50;;;3.20;;
35578;SDS011;21687;48.900;9.188;2023-05-13T14:46:54;4.07;;;3.20;;
35578;SDS011;21687;48.900;9.188;2023-05-13T14:49:23;4.07;;;3.73;;
35578;SDS011;21687;48.900;9.188;2023-05-13T14:52:02;3.37;;;3.10;;
35578;SDS011;21687;48.900;9.188;2023-05-13T14:55:09;3.20;;;2.90;;
35578;SDS011;21687;48.900;9.188;2023-05-13T14:58:04;4.00;;;3.20;;
35578;SDS011;21687;48.900;9.188;2023-05-13T15:01:21;3.40;;;3.10;;
35578;SDS011;21687;48.900;9.188;2023-05-13T15:04:02;3.60;;;3.30;;
35578;SDS011;21687;48.900;9.188;2023-05-13T15:06:29;3.50;;;3.30;;
35578;SDS011;21687;48.900;9.188;2023-05-13T15:09:10;6.57;;;3.70;;
35578;SDS011;21687;48.900;9.188;2023-05-13T15:11:40;3.77;;;3.37;;
35578;SDS011;21687;48.900;9.188;2023-05-13T15:17:56;3.53;;;3.23;;
35578;SDS011;21687;48.900;9.188;2023-05-13T15:21:16;3.50;;;3.20;;
35578;SDS011;21687;48.900;9.188;2023-05-13T15:24:33;4.63;;;3.77;;
35578;SDS011;21687;48.900;9.188;2023-05-13T15:27:34;4.03;;;3.70;;
35578;SDS011;21687;48.900;9.188;2023-05-13T15:30:11;4.10;;;3.37;;
35578;SDS011;21687;48.900;9.188;2023-05-13T15:32:48;5.53;;;3.87;;
35578;SDS011;21687;48.900;9.188;2023-05-13T15:35:14;3.57;;;3.27;;
35578;SDS011;21687;48.900;9.188;2023-05-13T15:44:58;4.90;;;3.60;;
35578;SDS011;21687;48.900;9.188;2023-05-13T15:47:26;4.03;;;3.70;;
35578;SDS011;21687;48.900;9.188;2023-05-13T15:49:52;4.00;;;3.60;;
35578;SDS011;21687;48.900;9.188;2023-05-13T15:52:19;4.63;;;3.97;;
35578;SDS011;21687;48.900;9.188;2023-05-13T15:54:45;4.53;;;4.13;;
35578;SDS011;21687;48.900;9.188;2023-05-13T15:57:12;3.87;;;3.47;;
35578;SDS011;21687;48.900;9.188;2023-05-13T15:59:39;4.67;;;3.60;;
35578;SDS011;21687;48.900;9.188;2023-05-13T16:02:05;4.00;;;3.60;;
35578;SDS011;21687;48.900;9.188;2023-05-13T16:04:31;4.03;;;3.57;;
35578;SDS011;21687;48.900;9.188;2023-05-13T16:06:58;5.03;;;4.10;;
35578;SDS011;21687;48.900;9.188;2023-05-13T16:09:24;4.13;;;3.83;;
35578;SDS011;21687;48.900;9.188;2023-05-13T16:11:51;4.07;;;3.67;;
35578;SDS011;21687;48.900;9.188;2023-05-13T16:14:19;3.63;;;3.33;;
35578;SDS011;21687;48.900;9.188;2023-05-13T16:16:48;4.00;;;3.70;;
35578;SDS011;21687;48.900;9.188;2023-05-13T16:19:14;4.57;;;4.17;;
35578;SDS011;21687;48.900;9.188;2023-05-13T16:21:41;4.93;;;3.80;;
35578;SDS011;21687;48.900;9.188;2023-05-13T16:24:07;3.60;;;3.30;;
35578;SDS011;21687;48.900;9.188;2023-05-13T16:26:34;5.80;;;4.07;;
35578;SDS011;21687;48.900;9.188;2023-05-13T16:29:00;4.20;;;3.80;;